Nearby METAR Reports

 

KSEE - San Diego/Santee, California, USA
Distance from station: E 4mi, 6km
Updated: Sat, 20-Apr-2024 2:35am PDT
Overcast
Overcast
 Wind from calm
Wind: Calm
Temperature: 59°F , 15°C
Dew Point: 50°F , 10°C
Humidity: 72%
Barometer: 29.98 inHg , 1015.2 hPa
Clouds: Overcast
Visibility: 10 miles , 16 km
Cloud details: Overcast 2000 ft
2024/04/20 09:35 KSEE 200935Z AUTO 00000KT 10SM OVC020 15/10 A2998 RMK AO2
KMYF - San Diego/Mntgmy, California, USA
Distance from station: W 6mi, 10km
Updated: Sat, 20-Apr-2024 1:53am PDT
Overcast
Overcast
 Wind from W
Wind: W 3 mph , 6 km/h
Temperature: 57°F , 14°C
Dew Point: 50°F , 10°C
Humidity: 77%
Barometer: 29.99 inHg , 1015.6 hPa
Clouds: Overcast
Visibility: 10 miles , 16 km
Cloud details: Overcast 1800 ft
2024/04/20 08:53 KMYF 200853Z AUTO 27003KT 10SM OVC018 14/10 A2999 RMK AO2 SLP154 T01440100 58001
 
KNKX - Miramar Nas/San, California, USA
Distance from station: WNW 7mi, 11km
Updated: Sat, 20-Apr-2024 1:55am PDT
Overcast
Overcast
 Wind from calm
Wind: Calm
Temperature: 55°F , 13°C
Dew Point: 52°F , 11°C
Humidity: 88%
Barometer: 29.99 inHg , 1015.6 hPa
Clouds: Overcast
Visibility: 9 miles , 14 km
Cloud details: Overcast 1600 ft
2024/04/20 08:55 KNKX 200855Z 00000KT 9SM OVC016 13/11 A2999 RMK AO2 SLP152 T01280106 58001
KSAN - San Diego, California, USA
Distance from station: WSW 11mi, 17km
Updated: Sat, 20-Apr-2024 1:51am PDT
Overcast
Overcast
 Wind from W
Wind: W 7 mph , 11 km/h
Temperature: 61°F , 16°C
Dew Point: 50°F , 10°C
Humidity: 68%
Barometer: 30.01 inHg , 1016.3 hPa
Clouds: Overcast
Visibility: 10 miles , 16 km
Cloud details: Overcast 2400 ft
2024/04/20 08:51 KSAN 200851Z 26006KT 10SM OVC024 16/10 A3001 RMK AO2 SLP161 T01610100 58001 $
 
KNZY - North Island Nas, California, USA
Distance from station: SW 13mi, 22km
Updated: Sat, 20-Apr-2024 1:52am PDT
Overcast
Overcast
 Wind from W
Wind: W 5 mph , 7 km/h
Temperature: 59°F , 15°C
Dew Point: 54°F , 12°C
Humidity: 82%
Barometer: 29.99 inHg , 1015.6 hPa
Clouds: Overcast
Visibility: 10 miles , 16 km
Cloud details: Overcast 2300 ft
2024/04/20 08:52 KNZY 200852Z AUTO 28004KT 10SM OVC023 15/12 A2999 RMK AO2 SLP154 T01500117 58001 $
KRNM - Ramona, California, USA
Distance from station: NNE 16mi, 26km
Updated: Sat, 20-Apr-2024 1:53am PDT
Overcast
Overcast
 Wind from calm
Wind: Calm
Temperature: 54°F , 12°C
Dew Point: 50°F , 10°C
Humidity: 88%
Barometer: 29.99 inHg , 1015.6 hPa
Clouds: Overcast
Visibility: 8 miles , 13 km
Cloud details: Overcast 800 ft
2024/04/20 08:53 KRNM 200853Z AUTO 00000KT 8SM OVC008 12/10 A2999 RMK AO2 SLP144 T01170100 58002 $
 
KSDM - San Diego/Brown, California, USA
Distance from station: S 16mi, 26km
Updated: Sat, 20-Apr-2024 1:53am PDT
Overcast
Overcast
 Wind from calm
Wind: Calm
Temperature: 57°F , 14°C
Dew Point: 50°F , 10°C
Humidity: 77%
Barometer: 29.99 inHg , 1015.6 hPa
Clouds: Overcast
Visibility: 10 miles , 16 km
Cloud details: Overcast 1800 ft
2024/04/20 08:53 KSDM 200853Z AUTO 00000KT 10SM OVC018 14/10 A2999 RMK AO2 SLP153 T01440100 58001
KNRS - Imperial Beach, California, USA
Distance from station: SSW 18mi, 29km
Updated: Sat, 20-Apr-2024 1:53am PDT
Overcast
Overcast
 Wind from WSW
Wind: WSW 5 mph , 7 km/h
Temperature: 1°F , -17°C
Wind Chill: -9°F , -23°C
Barometer: 30.00 inHg , 1015.9 hPa
Clouds: Overcast
Cloud details: Overcast 2100 ft
2024/04/20 08:53 KNRS 200853Z AUTO 24004KT OVC021 M17/ A3000 RMK AO2 SLP159 T1167 58001 $
 
MMTJ - Tijuana Intl Arp, Mexico
Distance from station: S 20mi, 32km
Updated: Sat, 20-Apr-2024 1:40am PDT
Overcast
Overcast
 Wind from calm
Wind: Calm
Temperature: 59°F , 15°C
Dew Point: 50°F , 10°C
Humidity: 72%
Barometer: 30.02 inHg , 1016.6 hPa
Clouds: Overcast
Visibility: 8 miles , 13 km
Cloud details: Overcast 2100 ft
2024/04/20 08:40 MMTJ 200840Z 00000KT 8SM OVC021 15/10 A3002 RMK SLP204 54000 936 8/6// HZY BINOVC
KCRQ - Carlsbad, California, USA
Distance from station: NW 26mi, 43km
Updated: Sat, 20-Apr-2024 1:53am PDT
Overcast
Overcast
 Wind from calm
Wind: Calm
Temperature: 57°F , 14°C
Dew Point: 50°F , 10°C
Humidity: 77%
Barometer: 29.99 inHg , 1015.6 hPa
Clouds: Overcast
Visibility: 10 miles , 16 km
Cloud details: Overcast 1700 ft
2024/04/20 08:53 KCRQ 200853Z AUTO 00000KT 10SM OVC017 14/10 A2999 RMK AO2 SLP152 T01440100 55001
 
KOKB - Oceanside, California, USA
Distance from station: NW 33mi, 54km
Updated: Sat, 20-Apr-2024 1:52am PDT
Overcast
Overcast
 Wind from calm
Wind: Calm
Temperature: 57°F , 14°C
Dew Point: 52°F , 11°C
Humidity: 82%
Barometer: 29.99 inHg , 1015.6 hPa
Clouds: Overcast
Visibility: 8 miles , 13 km
Cloud details: Overcast 1900 ft
2024/04/20 08:52 KOKB 200852Z AUTO 00000KT 8SM OVC019 14/11 A2999 RMK AO2 SLP155 T01440111 51002
KCZZ - Campo, California, USA
Distance from station: ESE 35mi, 56km
Updated: Mon, 26-Oct-2020 8:52am PDT
NOT Current

 Wind from NE
Wind: NE 14 mph , 22 km/h, Gust: 20 mph , 31 km/h
Temperature: 48°F , 9°C
Wind Chill: 42°F , 6°C
Dew Point: 27°F , -3°C
Humidity: 43%
Barometer: 29.99 inHg , 1015.6 hPa
2020/10/26 15:52 KCZZ 261552Z AUTO 05012G17KT 09/M03 A2999 RMK AO1 SLP140 T00891028
 
KNFG - Camp Pendleton, California, USA
Distance from station: NNW 37mi, 59km
Updated: Sat, 20-Apr-2024 1:55am PDT
Overcast
Overcast
 Wind from calm
Wind: Calm
Temperature: 57°F , 14°C
Dew Point: 52°F , 11°C
Humidity: 82%
Barometer: 30.00 inHg , 1015.9 hPa
Clouds: Overcast
Visibility: 10 miles , 16 km
Cloud details: Overcast 1900 ft
2024/04/20 08:55 KNFG 200855Z AUTO 00000KT 10SM OVC019 14/11 A3000 RMK AO2 SLP158 T01440106 51001 $
KRIV - Riverside/March, California, USA
Distance from station: N 74mi, 119km
Updated: Sat, 20-Apr-2024 2:32am PDT
Mist, Mostly cloudy
Mist, Mostly cloudy
 Wind from calm
Wind: Calm
Temperature: 50°F , 10°C
Dew Point: 48°F , 9°C
Humidity: 94%
Barometer: 29.98 inHg , 1015.2 hPa
Summary: Mist
Clouds: Mostly cloudy
Visibility: 5 miles , 8 km
Cloud details: Mostly cloudy 900 ft
2024/04/20 09:32 KRIV 200932Z 00000KT 5SM BR BKN009 10/09 A2998 RMK AO2A SLP147
 
KTRM - Thermal/Palm Spg, California, USA
Distance from station: NE 75mi, 121km
Updated: Sat, 20-Apr-2024 1:52am PDT
Clear
Clear
 Wind from NNW
Wind: NNW 14 mph , 22 km/h
Temperature: 72°F , 22°C
Dew Point: 48°F , 9°C
Humidity: 44%
Barometer: 29.77 inHg , 1008.1 hPa
Clouds: Clear
Visibility: 10 miles , 16 km
2024/04/20 08:52 KTRM 200852Z AUTO 33012KT 10SM CLR 22/09 A2977 RMK AO2 SLP085 T02170094 50003 $
KPSP - Palm Springs, California, USA
Distance from station: NNE 76mi, 122km
Updated: Sat, 20-Apr-2024 1:53am PDT
Light rain, Clear
Light rain, Clear
 Wind from SSE
Wind: SSE 5 mph , 7 km/h
Temperature: 66°F , 19°C
Dew Point: 48°F , 9°C
Humidity: 52%
Barometer: 29.81 inHg , 1009.5 hPa
Summary: Light rain
Clouds: Clear
2024/04/20 08:53 KPSP 200853Z AUTO 15004KT -RA CLR 19/09 A2981 RMK AO2 SLP093 6//// T01940094 50003 PNO $
 
KSNA - Costa Mesa, California, USA
Distance from station: NW 76mi, 123km
Updated: Sat, 20-Apr-2024 1:53am PDT
Overcast
Overcast
 
Barometer: 30.00 inHg , 1015.9 hPa
Clouds: Overcast
Visibility: 10 miles , 16 km
Cloud details: Overcast 1900 ft
2024/04/20 08:53 KSNA 200853Z AUTO 10SM OVC019 A3000 RMK AO2 SLPNO 53005 PWINO $
KNJK - El Centro Naf, California, USA
Distance from station: E 79mi, 127km
Updated: Sat, 20-Apr-2024 1:56am PDT

 Wind from W
Wind: W 5 mph , 7 km/h
Temperature: 66°F , 19°C
Dew Point: 36°F , 2°C
Humidity: 32%
Barometer: 29.79 inHg , 1008.8 hPa
Visibility: 10 miles , 16 km
2024/04/20 08:56 KNJK 200856Z AUTO 26004KT 10SM 19/02 A2979 RMK AO2 SLP105 T01940017 50000 $
 
KAJO - Corona Muni, California, USA
Distance from station: NNW 82mi, 132km
Updated: Sat, 20-Apr-2024 1:56am PDT
Mostly cloudy
Mostly cloudy
 Wind from calm
Wind: Calm
Temperature: 52°F , 11°C
Dew Point: 50°F , 10°C
Humidity: 94%
Barometer: 30.00 inHg , 1015.9 hPa
Clouds: Mostly cloudy
Visibility: 7 miles , 11 km
Cloud details: Mostly cloudy 1500 ft
2024/04/20 08:56 KAJO 200856Z AUTO 00000KT 7SM BKN015 11/10 A3000 RMK AO2 SLP156 T01060100 52003